sensor_id;sensor_type;location;lat;lon;timestamp;pressure;altitude;pressure_sealevel;temperature;humidity
30081;BME280;16902;50.816;12.828;2022-10-16T00:00:50;97553.13;;;14.60;100.00
30081;BME280;16902;50.816;12.828;2022-10-16T00:05:52;97549.09;;;14.64;100.00
30081;BME280;16902;50.816;12.828;2022-10-16T00:11:12;97549.47;;;14.68;100.00
30081;BME280;16902;50.816;12.828;2022-10-16T00:16:16;97554.09;;;14.72;100.00
30081;BME280;16902;50.816;12.828;2022-10-16T00:21:21;97563.94;;;14.77;100.00
30081;BME280;16902;50.816;12.828;2022-10-16T00:26:23;97572.25;;;14.99;100.00
30081;BME280;16902;50.816;12.828;2022-10-16T00:31:26;97583.28;;;15.14;100.00
30081;BME280;16902;50.816;12.828;2022-10-16T00:36:28;97584.41;;;15.25;100.00
30081;BME280;16902;50.816;12.828;2022-10-16T00:41:31;97586.53;;;15.34;100.00
30081;BME280;16902;50.816;12.828;2022-10-16T00:46:39;97579.06;;;15.38;100.00
30081;BME280;16902;50.816;12.828;2022-10-16T00:51:44;97593.97;;;15.37;100.00
30081;BME280;16902;50.816;12.828;2022-10-16T00:56:46;97595.38;;;15.40;100.00
30081;BME280;16902;50.816;12.828;2022-10-16T01:01:48;97600.38;;;15.41;100.00
30081;BME280;16902;50.816;12.828;2022-10-16T01:12:15;97589.31;;;15.39;100.00
30081;BME280;16902;50.816;12.828;2022-10-16T01:17:22;97593.53;;;15.40;100.00
30081;BME280;16902;50.816;12.828;2022-10-16T01:22:34;97591.72;;;15.41;100.00
30081;BME280;16902;50.816;12.828;2022-10-16T01:27:40;97594.63;;;15.33;100.00
30081;BME280;16902;50.816;12.828;2022-10-16T01:32:49;97594.31;;;15.48;100.00
30081;BME280;16902;50.816;12.828;2022-10-16T01:38:34;97593.22;;;15.55;100.00
30081;BME280;16902;50.816;12.828;2022-10-16T01:43:54;97589.47;;;15.45;100.00
30081;BME280;16902;50.816;12.828;2022-10-16T01:49:00;97584.72;;;15.10;100.00
30081;BME280;16902;50.816;12.828;2022-10-16T01:54:05;97593.00;;;14.75;100.00
30081;BME280;16902;50.816;12.828;2022-10-16T01:59:17;97596.25;;;14.71;100.00
30081;BME280;16902;50.816;12.828;2022-10-16T02:04:36;97602.50;;;14.63;100.00
30081;BME280;16902;50.816;12.828;2022-10-16T02:09:39;97598.13;;;14.88;100.00
30081;BME280;16902;50.816;12.828;2022-10-16T02:14:42;97598.44;;;15.05;100.00
30081;BME280;16902;50.816;12.828;2022-10-16T02:19:44;97592.59;;;15.03;100.00
30081;BME280;16902;50.816;12.828;2022-10-16T02:30:48;97612.41;;;14.99;100.00
30081;BME280;16902;50.816;12.828;2022-10-16T02:35:53;97596.25;;;14.64;100.00
30081;BME280;16902;50.816;12.828;2022-10-16T02:40:56;97589.53;;;14.36;100.00
30081;BME280;16902;50.816;12.828;2022-10-16T02:45:58;97592.31;;;14.35;100.00
30081;BME280;16902;50.816;12.828;2022-10-16T02:51:00;97601.31;;;14.65;100.00
30081;BME280;16902;50.816;12.828;2022-10-16T02:56:02;97609.47;;;14.82;100.00
30081;BME280;16902;50.816;12.828;2022-10-16T03:01:04;97602.47;;;14.70;100.00
30081;BME280;16902;50.816;12.828;2022-10-16T03:06:06;97606.53;;;14.65;100.00
30081;BME280;16902;50.816;12.828;2022-10-16T03:11:08;97604.50;;;14.68;100.00
30081;BME280;16902;50.816;12.828;2022-10-16T03:16:10;97606.59;;;14.52;100.00
30081;BME280;16902;50.816;12.828;2022-10-16T03:21:11;97608.91;;;14.74;100.00
30081;BME280;16902;50.816;12.828;2022-10-16T03:26:13;97602.28;;;14.64;100.00
30081;BME280;16902;50.816;12.828;2022-10-16T03:31:15;97608.66;;;14.82;100.00
30081;BME280;16902;50.816;12.828;2022-10-16T03:36:17;97619.53;;;14.85;100.00
30081;BME280;16902;50.816;12.828;2022-10-16T03:41:19;97627.31;;;14.99;100.00
30081;BME280;16902;50.816;12.828;2022-10-16T03:46:21;97623.94;;;14.91;100.00
30081;BME280;16902;50.816;12.828;2022-10-16T03:51:23;97634.22;;;14.93;100.00
30081;BME280;16902;50.816;12.828;2022-10-16T03:56:25;97628.13;;;14.99;100.00
30081;BME280;16902;50.816;12.828;2022-10-16T04:01:27;97636.75;;;15.06;100.00
30081;BME280;16902;50.816;12.828;2022-10-16T04:06:29;97629.91;;;15.05;100.00
30081;BME280;16902;50.816;12.828;2022-10-16T04:11:31;97632.16;;;15.02;100.00
30081;BME280;16902;50.816;12.828;2022-10-16T04:16:33;97635.78;;;15.01;100.00
30081;BME280;16902;50.816;12.828;2022-10-16T04:21:35;97651.63;;;14.74;100.00
30081;BME280;16902;50.816;12.828;2022-10-16T04:26:37;97629.50;;;14.70;100.00
30081;BME280;16902;50.816;12.828;2022-10-16T04:31:39;97632.94;;;14.71;100.00
30081;BME280;16902;50.816;12.828;2022-10-16T04:36:41;97635.50;;;14.77;100.00
30081;BME280;16902;50.816;12.828;2022-10-16T04:41:43;97650.19;;;14.85;100.00
30081;BME280;16902;50.816;12.828;2022-10-16T04:46:44;97658.28;;;14.77;100.00
30081;BME280;16902;50.816;12.828;2022-10-16T04:51:46;97666.78;;;14.72;100.00
30081;BME280;16902;50.816;12.828;2022-10-16T04:56:49;97665.78;;;14.67;100.00
30081;BME280;16902;50.816;12.828;2022-10-16T05:01:53;97664.63;;;14.56;100.00
30081;BME280;16902;50.816;12.828;2022-10-16T05:06:55;97662.63;;;14.38;100.00
30081;BME280;16902;50.816;12.828;2022-10-16T05:11:57;97672.75;;;14.14;100.00
30081;BME280;16902;50.816;12.828;2022-10-16T05:16:59;97678.81;;;14.02;100.00
30081;BME280;16902;50.816;12.828;2022-10-16T05:22:02;97679.41;;;13.97;100.00
30081;BME280;16902;50.816;12.828;2022-10-16T05:27:03;97686.47;;;13.97;100.00
30081;BME280;16902;50.816;12.828;2022-10-16T05:32:05;97691.88;;;14.28;100.00
30081;BME280;16902;50.816;12.828;2022-10-16T05:37:07;97708.16;;;14.50;100.00
30081;BME280;16902;50.816;12.828;2022-10-16T05:42:09;97715.78;;;14.58;100.00
30081;BME280;16902;50.816;12.828;2022-10-16T05:47:12;97712.16;;;14.66;100.00
30081;BME280;16902;50.816;12.828;2022-10-16T05:52:14;97714.34;;;14.76;100.00
30081;BME280;16902;50.816;12.828;2022-10-16T05:57:16;97716.09;;;14.95;100.00
30081;BME280;16902;50.816;12.828;2022-10-16T06:02:18;97721.47;;;15.07;100.00
30081;BME280;16902;50.816;12.828;2022-10-16T06:07:20;97714.97;;;15.16;100.00
30081;BME280;16902;50.816;12.828;2022-10-16T06:12:22;97729.50;;;15.19;100.00
30081;BME280;16902;50.816;12.828;2022-10-16T06:17:24;97736.13;;;15.21;100.00
30081;BME280;16902;50.816;12.828;2022-10-16T06:22:26;97757.88;;;15.28;100.00
30081;BME280;16902;50.816;12.828;2022-10-16T06:27:28;97754.25;;;15.23;100.00
30081;BME280;16902;50.816;12.828;2022-10-16T06:32:30;97754.94;;;15.11;100.00
30081;BME280;16902;50.816;12.828;2022-10-16T06:37:32;97766.88;;;15.01;100.00
30081;BME280;16902;50.816;12.828;2022-10-16T06:42:34;97769.53;;;14.94;100.00
30081;BME280;16902;50.816;12.828;2022-10-16T06:47:35;97772.91;;;15.01;100.00
30081;BME280;16902;50.816;12.828;2022-10-16T06:52:37;97779.13;;;15.13;100.00
30081;BME280;16902;50.816;12.828;2022-10-16T06:57:39;97793.72;;;15.41;100.00
30081;BME280;16902;50.816;12.828;2022-10-16T07:02:41;97802.09;;;15.63;100.00
30081;BME280;16902;50.816;12.828;2022-10-16T07:07:43;97799.06;;;15.66;100.00
30081;BME280;16902;50.816;12.828;2022-10-16T07:12:44;97804.16;;;15.54;100.00
30081;BME280;16902;50.816;12.828;2022-10-16T07:17:46;97814.44;;;15.56;100.00
30081;BME280;16902;50.816;12.828;2022-10-16T07:22:48;97813.22;;;15.97;100.00
30081;BME280;16902;50.816;12.828;2022-10-16T07:27:50;97822.88;;;16.28;100.00
30081;BME280;16902;50.816;12.828;2022-10-16T07:32:51;97816.28;;;16.43;100.00
30081;BME280;16902;50.816;12.828;2022-10-16T07:37:53;97825.16;;;16.49;100.00
30081;BME280;16902;50.816;12.828;2022-10-16T07:42:55;97815.44;;;16.75;100.00
30081;BME280;16902;50.816;12.828;2022-10-16T07:47:57;97840.88;;;16.99;100.00
30081;BME280;16902;50.816;12.828;2022-10-16T07:52:59;97831.69;;;17.08;100.00
30081;BME280;16902;50.816;12.828;2022-10-16T07:58:00;97827.34;;;17.32;100.00
30081;BME280;16902;50.816;12.828;2022-10-16T08:03:02;97834.34;;;17.38;100.00
30081;BME280;16902;50.816;12.828;2022-10-16T08:08:04;97851.38;;;17.54;100.00
30081;BME280;16902;50.816;12.828;2022-10-16T08:13:06;97847.41;;;17.63;100.00
30081;BME280;16902;50.816;12.828;2022-10-16T08:18:09;97859.19;;;17.61;100.00
30081;BME280;16902;50.816;12.828;2022-10-16T08:23:12;97864.94;;;17.69;100.00
30081;BME280;16902;50.816;12.828;2022-10-16T08:28:14;97852.38;;;18.02;100.00
30081;BME280;16902;50.816;12.828;2022-10-16T08:33:17;97854.56;;;18.05;100.00
30081;BME280;16902;50.816;12.828;2022-10-16T08:38:19;97844.72;;;18.12;100.00
30081;BME280;16902;50.816;12.828;2022-10-16T08:48:47;97867.59;;;18.41;100.00
30081;BME280;16902;50.816;12.828;2022-10-16T08:53:56;97871.19;;;18.47;100.00
30081;BME280;16902;50.816;12.828;2022-10-16T08:58:59;97863.00;;;18.37;100.00
30081;BME280;16902;50.816;12.828;2022-10-16T09:09:20;97885.03;;;18.66;100.00
30081;BME280;16902;50.816;12.828;2022-10-16T09:14:48;97888.66;;;18.83;100.00
30081;BME280;16902;50.816;12.828;2022-10-16T09:20:00;97902.66;;;18.95;100.00
30081;BME280;16902;50.816;12.828;2022-10-16T09:25:15;97899.44;;;18.93;100.00
30081;BME280;16902;50.816;12.828;2022-10-16T09:30:19;97912.63;;;18.93;100.00
30081;BME280;16902;50.816;12.828;2022-10-16T09:35:27;97914.69;;;19.15;100.00
30081;BME280;16902;50.816;12.828;2022-10-16T09:40:38;97919.59;;;19.23;100.00
30081;BME280;16902;50.816;12.828;2022-10-16T09:45:40;97922.47;;;19.21;100.00
30081;BME280;16902;50.816;12.828;2022-10-16T09:50:42;97925.94;;;19.10;100.00
30081;BME280;16902;50.816;12.828;2022-10-16T09:55:48;97934.88;;;18.97;100.00
30081;BME280;16902;50.816;12.828;2022-10-16T10:00:53;97945.56;;;18.91;100.00
30081;BME280;16902;50.816;12.828;2022-10-16T10:05:55;97946.56;;;19.13;100.00
30081;BME280;16902;50.816;12.828;2022-10-16T10:11:02;97951.41;;;19.63;100.00
30081;BME280;16902;50.816;12.828;2022-10-16T10:16:04;97953.44;;;19.61;100.00
30081;BME280;16902;50.816;12.828;2022-10-16T10:21:14;97956.63;;;19.75;100.00
30081;BME280;16902;50.816;12.828;2022-10-16T10:26:24;97958.13;;;19.59;100.00
30081;BME280;16902;50.816;12.828;2022-10-16T10:43:16;97960.13;;;20.04;100.00
30081;BME280;16902;50.816;12.828;2022-10-16T10:54:09;97946.66;;;20.06;100.00
30081;BME280;16902;50.816;12.828;2022-10-16T11:05:16;97949.25;;;20.17;100.00
30081;BME280;16902;50.816;12.828;2022-10-16T11:10:27;97961.38;;;20.30;100.00
30081;BME280;16902;50.816;12.828;2022-10-16T11:15:32;97958.81;;;21.31;100.00
30081;BME280;16902;50.816;12.828;2022-10-16T11:20:45;97959.03;;;21.46;100.00
30081;BME280;16902;50.816;12.828;2022-10-16T11:25:48;97961.66;;;21.46;100.00
30081;BME280;16902;50.816;12.828;2022-10-16T11:30:55;97965.97;;;21.91;100.00
30081;BME280;16902;50.816;12.828;2022-10-16T11:36:25;97965.56;;;22.26;100.00
30081;BME280;16902;50.816;12.828;2022-10-16T11:46:40;97977.78;;;21.62;100.00
30081;BME280;16902;50.816;12.828;2022-10-16T11:57:21;97985.06;;;21.71;100.00
30081;BME280;16902;50.816;12.828;2022-10-16T12:07:45;97975.06;;;21.57;100.00
30081;BME280;16902;50.816;12.828;2022-10-16T12:12:48;97989.78;;;22.62;100.00
30081;BME280;16902;50.816;12.828;2022-10-16T12:17:51;97996.38;;;22.87;100.00
30081;BME280;16902;50.816;12.828;2022-10-16T12:22:56;97993.66;;;22.49;100.00
30081;BME280;16902;50.816;12.828;2022-10-16T12:33:22;98004.69;;;22.63;100.00
30081;BME280;16902;50.816;12.828;2022-10-16T12:38:48;97999.09;;;22.38;100.00
30081;BME280;16902;50.816;12.828;2022-10-16T12:43:51;98004.53;;;21.82;100.00
30081;BME280;16902;50.816;12.828;2022-10-16T12:48:52;98008.34;;;21.69;100.00
30081;BME280;16902;50.816;12.828;2022-10-16T12:54:13;98009.09;;;21.87;100.00
30081;BME280;16902;50.816;12.828;2022-10-16T13:31:29;98023.50;;;20.16;100.00
30081;BME280;16902;50.816;12.828;2022-10-16T13:36:43;98024.19;;;20.11;100.00
30081;BME280;16902;50.816;12.828;2022-10-16T13:41:46;98029.94;;;20.20;100.00
30081;BME280;16902;50.816;12.828;2022-10-16T13:46:58;98028.25;;;20.42;100.00
30081;BME280;16902;50.816;12.828;2022-10-16T13:52:00;98032.06;;;20.35;100.00
30081;BME280;16902;50.816;12.828;2022-10-16T13:57:05;98028.59;;;20.46;100.00
30081;BME280;16902;50.816;12.828;2022-10-16T14:02:35;98028.00;;;20.44;100.00
30081;BME280;16902;50.816;12.828;2022-10-16T14:07:39;98032.97;;;20.40;100.00
30081;BME280;16902;50.816;12.828;2022-10-16T14:12:42;98045.91;;;20.65;100.00
30081;BME280;16902;50.816;12.828;2022-10-16T14:17:45;98038.88;;;20.59;100.00
30081;BME280;16902;50.816;12.828;2022-10-16T14:23:00;98042.69;;;20.23;100.00
30081;BME280;16902;50.816;12.828;2022-10-16T14:28:22;98056.81;;;20.28;100.00
30081;BME280;16902;50.816;12.828;2022-10-16T14:33:31;98063.75;;;20.18;100.00
30081;BME280;16902;50.816;12.828;2022-10-16T14:38:35;98062.88;;;19.89;100.00
30081;BME280;16902;50.816;12.828;2022-10-16T14:43:40;98061.63;;;19.80;100.00
30081;BME280;16902;50.816;12.828;2022-10-16T14:48:44;98069.22;;;19.64;100.00
30081;BME280;16902;50.816;12.828;2022-10-16T14:53:47;98071.91;;;19.58;100.00
30081;BME280;16902;50.816;12.828;2022-10-16T14:58:52;98067.81;;;19.50;100.00
30081;BME280;16902;50.816;12.828;2022-10-16T15:03:54;98079.84;;;19.46;100.00
30081;BME280;16902;50.816;12.828;2022-10-16T15:08:56;98090.28;;;19.41;100.00
30081;BME280;16902;50.816;12.828;2022-10-16T15:13:58;98099.22;;;19.28;100.00
30081;BME280;16902;50.816;12.828;2022-10-16T15:19:00;98099.28;;;19.10;100.00
30081;BME280;16902;50.816;12.828;2022-10-16T15:24:02;98085.41;;;19.03;100.00
30081;BME280;16902;50.816;12.828;2022-10-16T15:29:04;98085.50;;;18.96;100.00
30081;BME280;16902;50.816;12.828;2022-10-16T15:34:08;98086.38;;;18.90;100.00
30081;BME280;16902;50.816;12.828;2022-10-16T15:39:16;98093.53;;;18.71;100.00
30081;BME280;16902;50.816;12.828;2022-10-16T15:44:18;98096.13;;;18.59;100.00
30081;BME280;16902;50.816;12.828;2022-10-16T15:49:20;98100.75;;;18.45;100.00
30081;BME280;16902;50.816;12.828;2022-10-16T15:54:22;98103.72;;;18.19;100.00
30081;BME280;16902;50.816;12.828;2022-10-16T15:59:24;98099.75;;;17.66;100.00
30081;BME280;16902;50.816;12.828;2022-10-16T16:04:26;98109.97;;;17.31;100.00
30081;BME280;16902;50.816;12.828;2022-10-16T16:09:45;98114.84;;;16.96;100.00
30081;BME280;16902;50.816;12.828;2022-10-16T16:14:47;98124.72;;;16.56;100.00
30081;BME280;16902;50.816;12.828;2022-10-16T16:19:51;98128.09;;;16.18;100.00
30081;BME280;16902;50.816;12.828;2022-10-16T16:24:52;98133.00;;;15.88;100.00
30081;BME280;16902;50.816;12.828;2022-10-16T16:29:55;98140.09;;;15.67;100.00
30081;BME280;16902;50.816;12.828;2022-10-16T16:34:57;98155.19;;;15.46;100.00
30081;BME280;16902;50.816;12.828;2022-10-16T16:39:59;98164.06;;;15.25;100.00
30081;BME280;16902;50.816;12.828;2022-10-16T16:45:00;98170.28;;;15.10;100.00
30081;BME280;16902;50.816;12.828;2022-10-16T16:50:02;98186.75;;;14.91;100.00
30081;BME280;16902;50.816;12.828;2022-10-16T16:55:06;98194.94;;;14.68;100.00
30081;BME280;16902;50.816;12.828;2022-10-16T17:00:09;98202.88;;;14.47;100.00
30081;BME280;16902;50.816;12.828;2022-10-16T17:05:11;98212.22;;;14.28;100.00
30081;BME280;16902;50.816;12.828;2022-10-16T17:10:12;98214.31;;;14.11;100.00
30081;BME280;16902;50.816;12.828;2022-10-16T17:15:14;98223.47;;;13.94;100.00
30081;BME280;16902;50.816;12.828;2022-10-16T17:20:16;98228.63;;;13.87;100.00
30081;BME280;16902;50.816;12.828;2022-10-16T17:25:17;98236.00;;;13.77;100.00
30081;BME280;16902;50.816;12.828;2022-10-16T17:30:19;98235.31;;;13.68;100.00
30081;BME280;16902;50.816;12.828;2022-10-16T17:35:21;98244.66;;;13.56;100.00
30081;BME280;16902;50.816;12.828;2022-10-16T17:40:22;98253.06;;;13.51;100.00
30081;BME280;16902;50.816;12.828;2022-10-16T17:45:24;98254.97;;;13.43;100.00
30081;BME280;16902;50.816;12.828;2022-10-16T17:50:26;98252.13;;;13.37;100.00
30081;BME280;16902;50.816;12.828;2022-10-16T17:55:27;98262.50;;;13.31;100.00
30081;BME280;16902;50.816;12.828;2022-10-16T18:00:29;98271.63;;;13.35;100.00
30081;BME280;16902;50.816;12.828;2022-10-16T18:05:30;98271.06;;;13.61;100.00
30081;BME280;16902;50.816;12.828;2022-10-16T18:10:32;98273.56;;;13.69;100.00
30081;BME280;16902;50.816;12.828;2022-10-16T18:15:34;98283.50;;;13.74;100.00
30081;BME280;16902;50.816;12.828;2022-10-16T18:20:35;98281.78;;;13.87;100.00
30081;BME280;16902;50.816;12.828;2022-10-16T18:25:37;98290.31;;;13.96;100.00
30081;BME280;16902;50.816;12.828;2022-10-16T18:30:39;98289.38;;;13.82;100.00
30081;BME280;16902;50.816;12.828;2022-10-16T18:35:40;98280.78;;;13.67;100.00
30081;BME280;16902;50.816;12.828;2022-10-16T18:40:42;98293.97;;;13.74;100.00
30081;BME280;16902;50.816;12.828;2022-10-16T18:45:54;98291.88;;;13.91;100.00
30081;BME280;16902;50.816;12.828;2022-10-16T18:51:29;98288.47;;;13.90;100.00
30081;BME280;16902;50.816;12.828;2022-10-16T18:56:31;98291.06;;;13.90;100.00
30081;BME280;16902;50.816;12.828;2022-10-16T19:01:34;98290.06;;;13.91;100.00
30081;BME280;16902;50.816;12.828;2022-10-16T19:06:39;98293.00;;;14.03;100.00
30081;BME280;16902;50.816;12.828;2022-10-16T19:11:43;98307.59;;;14.12;100.00
30081;BME280;16902;50.816;12.828;2022-10-16T19:16:45;98307.59;;;14.12;100.00
30081;BME280;16902;50.816;12.828;2022-10-16T19:21:46;98297.00;;;13.99;100.00
30081;BME280;16902;50.816;12.828;2022-10-16T19:26:51;98307.94;;;13.87;100.00
30081;BME280;16902;50.816;12.828;2022-10-16T19:31:53;98312.00;;;13.90;100.00
30081;BME280;16902;50.816;12.828;2022-10-16T19:36:54;98320.72;;;13.97;100.00
30081;BME280;16902;50.816;12.828;2022-10-16T19:41:56;98316.81;;;13.86;100.00
30081;BME280;16902;50.816;12.828;2022-10-16T19:46:58;98320.47;;;13.71;100.00
30081;BME280;16902;50.816;12.828;2022-10-16T19:51:59;98317.97;;;13.62;100.00
30081;BME280;16902;50.816;12.828;2022-10-16T19:57:01;98325.59;;;13.43;100.00
30081;BME280;16902;50.816;12.828;2022-10-16T20:02:02;98322.41;;;13.26;100.00
30081;BME280;16902;50.816;12.828;2022-10-16T20:07:04;98325.81;;;13.11;100.00
30081;BME280;16902;50.816;12.828;2022-10-16T20:12:06;98329.31;;;12.89;100.00
30081;BME280;16902;50.816;12.828;2022-10-16T20:17:07;98328.50;;;12.74;100.00
30081;BME280;16902;50.816;12.828;2022-10-16T20:22:09;98336.63;;;12.64;100.00
30081;BME280;16902;50.816;12.828;2022-10-16T20:27:11;98345.31;;;12.56;100.00
30081;BME280;16902;50.816;12.828;2022-10-16T20:32:12;98356.84;;;12.47;100.00
30081;BME280;16902;50.816;12.828;2022-10-16T20:37:15;98363.19;;;12.30;100.00
30081;BME280;16902;50.816;12.828;2022-10-16T20:42:16;98352.53;;;12.17;100.00
30081;BME280;16902;50.816;12.828;2022-10-16T20:47:18;98366.19;;;12.04;100.00
30081;BME280;16902;50.816;12.828;2022-10-16T20:52:20;98360.25;;;11.87;100.00
30081;BME280;16902;50.816;12.828;2022-10-16T20:57:21;98365.78;;;11.84;100.00
30081;BME280;16902;50.816;12.828;2022-10-16T21:02:23;98371.91;;;11.99;100.00
30081;BME280;16902;50.816;12.828;2022-10-16T21:07:26;98378.84;;;12.07;100.00
30081;BME280;16902;50.816;12.828;2022-10-16T21:12:28;98373.41;;;12.17;100.00
30081;BME280;16902;50.816;12.828;2022-10-16T21:17:30;98377.25;;;12.29;100.00
30081;BME280;16902;50.816;12.828;2022-10-16T21:22:32;98377.00;;;12.39;100.00
30081;BME280;16902;50.816;12.828;2022-10-16T21:27:38;98382.31;;;12.45;100.00
30081;BME280;16902;50.816;12.828;2022-10-16T21:32:40;98390.72;;;12.55;100.00
30081;BME280;16902;50.816;12.828;2022-10-16T21:37:42;98397.84;;;12.61;100.00
30081;BME280;16902;50.816;12.828;2022-10-16T21:42:48;98401.13;;;12.64;100.00
30081;BME280;16902;50.816;12.828;2022-10-16T21:47:49;98393.00;;;12.35;100.00
30081;BME280;16902;50.816;12.828;2022-10-16T21:52:51;98394.00;;;12.12;100.00
30081;BME280;16902;50.816;12.828;2022-10-16T21:57:53;98396.66;;;12.03;100.00
30081;BME280;16902;50.816;12.828;2022-10-16T22:02:55;98402.31;;;11.84;100.00
30081;BME280;16902;50.816;12.828;2022-10-16T22:07:58;98397.78;;;11.70;100.00
30081;BME280;16902;50.816;12.828;2022-10-16T22:13:00;98399.16;;;11.57;100.00
30081;BME280;16902;50.816;12.828;2022-10-16T22:18:02;98402.63;;;11.50;100.00
30081;BME280;16902;50.816;12.828;2022-10-16T22:23:03;98408.09;;;11.32;100.00
30081;BME280;16902;50.816;12.828;2022-10-16T22:28:05;98403.53;;;11.26;100.00
30081;BME280;16902;50.816;12.828;2022-10-16T22:33:07;98401.91;;;11.17;100.00
30081;BME280;16902;50.816;12.828;2022-10-16T22:38:08;98400.97;;;11.10;100.00
30081;BME280;16902;50.816;12.828;2022-10-16T22:43:10;98410.28;;;11.04;100.00
30081;BME280;16902;50.816;12.828;2022-10-16T22:48:11;98408.03;;;10.93;100.00
30081;BME280;16902;50.816;12.828;2022-10-16T22:53:13;98393.38;;;10.84;100.00
30081;BME280;16902;50.816;12.828;2022-10-16T22:58:15;98403.97;;;10.74;100.00
30081;BME280;16902;50.816;12.828;2022-10-16T23:03:16;98393.72;;;10.72;100.00
30081;BME280;16902;50.816;12.828;2022-10-16T23:08:18;98400.88;;;10.70;100.00
30081;BME280;16902;50.816;12.828;2022-10-16T23:13:20;98411.94;;;10.72;100.00
30081;BME280;16902;50.816;12.828;2022-10-16T23:18:21;98409.03;;;10.59;100.00
30081;BME280;16902;50.816;12.828;2022-10-16T23:23:23;98400.91;;;10.46;100.00
30081;BME280;16902;50.816;12.828;2022-10-16T23:28:24;98404.66;;;10.35;100.00
30081;BME280;16902;50.816;12.828;2022-10-16T23:33:26;98401.22;;;10.26;100.00
30081;BME280;16902;50.816;12.828;2022-10-16T23:38:28;98402.66;;;10.21;100.00
30081;BME280;16902;50.816;12.828;2022-10-16T23:43:29;98396.63;;;10.12;100.00
30081;BME280;16902;50.816;12.828;2022-10-16T23:48:31;98395.47;;;10.07;100.00
30081;BME280;16902;50.816;12.828;2022-10-16T23:53:33;98391.09;;;10.07;100.00
30081;BME280;16902;50.816;12.828;2022-10-16T23:58:35;98383.13;;;10.09;100.00
